Time;durP1;ratioP1;P1;durP2;ratioP2;P2;SDS_P1;SDS_P2;PMS_P1;PMS_P2;Temp;Humidity;BMP_temperature;BMP_pressure;BME280_temperature;BME280_humidity;BME280_pressure;Samples;Min_cycle;Max_cycle;Signal;HPM_P1;HPM_P2
2022/04/11 00:00:00;;;;;;;0.60;0.60;;;;;;;7.56;50.61;101412.88;5238832;28;20263;-77
2022/04/11 00:02:31;;;;;;;2.03;1.65;;;;;;;7.51;51.06;101401.59;5271353;27;22758;-77
2022/04/11 00:05:02;;;;;;;0.95;0.95;;;;;;;7.43;50.58;101403.34;5262647;27;20044;-77
2022/04/11 00:07:32;;;;;;;0.40;0.40;;;;;;;7.49;50.56;101404.19;5241541;27;20174;-77
2022/04/11 00:10:03;;;;;;;0.68;0.68;;;;;;;7.46;50.73;101406.81;5255800;28;20262;-77
2022/04/11 00:12:36;;;;;;;0.45;0.45;;;;;;;7.48;50.98;101399.84;5276928;27;20040;-76
2022/04/11 00:15:08;;;;;;;0.70;0.70;;;;;;;7.47;50.94;101397.22;5301146;27;20070;-76
2022/04/11 00:17:38;;;;;;;1.65;0.82;;;;;;;7.44;50.75;101387.69;5262132;27;20091;-77
2022/04/11 00:20:09;;;;;;;0.82;0.82;;;;;;;7.43;50.92;101391.16;5272110;28;20077;-77
2022/04/11 00:22:40;;;;;;;1.65;1.40;;;;;;;7.42;50.71;101389.41;5243766;27;20080;-77
2022/04/11 00:25:10;;;;;;;0.38;0.38;;;;;;;7.45;51.08;101384.19;5258242;28;20044;-77
2022/04/11 00:27:41;;;;;;;0.30;0.30;;;;;;;7.42;51.16;101383.34;5277559;27;20283;-77
2022/04/11 00:30:13;;;;;;;2.83;1.25;;;;;;;7.35;51.18;101385.97;5240331;28;20044;-77
2022/04/11 00:32:46;;;;;;;0.85;0.85;;;;;;;7.39;51.07;101369.41;5226597;28;20580;-78
2022/04/11 00:35:17;;;;;;;2.80;1.25;;;;;;;7.41;50.79;101369.41;5243978;28;20210;-77
2022/04/11 00:37:47;;;;;;;0.60;0.60;;;;;;;7.42;51.11;101367.66;5258161;27;20828;-77
2022/04/11 00:40:19;;;;;;;0.52;0.52;;;;;;;7.39;51.04;101363.34;5266318;28;20238;-78
2022/04/11 00:42:50;;;;;;;0.32;0.32;;;;;;;7.42;51.04;101367.66;5253676;28;20543;-78
2022/04/11 00:45:20;;;;;;;0.32;0.32;;;;;;;7.38;51.23;101361.59;5261436;28;20039;-77
2022/04/11 00:47:51;;;;;;;0.60;0.60;;;;;;;7.39;51.20;101355.50;5227774;27;20027;-77
2022/04/11 00:50:22;;;;;;;0.65;0.65;;;;;;;7.33;51.04;101352.88;5236533;28;20047;-77
2022/04/11 00:52:55;;;;;;;1.48;1.38;;;;;;;7.38;51.66;101358.97;5254944;28;20128;-77
2022/04/11 00:55:26;;;;;;;0.95;0.95;;;;;;;7.35;51.31;101356.38;5224250;27;20039;-77
2022/04/11 00:57:56;;;;;;;1.85;1.75;;;;;;;7.33;51.20;101350.28;5263432;28;20036;-77
2022/04/11 01:00:27;;;;;;;1.40;1.33;;;;;;;7.35;51.34;101354.66;5233384;28;20044;-77
2022/04/11 01:02:57;;;;;;;2.63;1.20;;;;;;;7.32;51.41;101348.53;5249149;28;20126;-78
2022/04/11 01:05:28;;;;;;;0.60;0.60;;;;;;;7.28;51.41;101349.44;5233724;28;20605;-77
2022/04/11 01:08:05;;;;;;;32.85;2.35;;;;;;;7.34;51.98;101345.06;5256880;28;20054;-78
2022/04/11 01:10:36;;;;;;;0.52;0.52;;;;;;;7.30;51.77;101338.13;5235749;28;20039;-77
2022/04/11 01:13:09;;;;;;;;;;;;;;;7.30;51.59;101337.25;5267170;27;20442;-78
2022/04/11 01:15:40;;;;;;;0.30;0.30;;;;;;;7.29;51.98;101335.50;5250486;27;20032;-78
2022/04/11 01:18:10;;;;;;;2.72;2.28;;;;;;;7.24;52.00;101330.31;5248649;28;20028;-78
2022/04/11 01:20:40;;;;;;;0.77;0.77;;;;;;;7.18;51.77;101341.63;5236854;27;20047;-78
2022/04/11 01:23:11;;;;;;;0.32;0.32;;;;;;;7.18;51.94;101325.97;5256825;28;20032;-78
2022/04/11 01:25:48;;;;;;;0.40;0.40;;;;;;;7.15;51.92;101323.38;5259163;27;20040;-77
2022/04/11 01:28:20;;;;;;;0.57;0.57;;;;;;;7.22;51.61;101324.22;5239220;28;20400;-78
2022/04/11 01:30:52;;;;;;;0.88;0.88;;;;;;;7.22;51.51;101314.66;5250668;27;20038;-78
2022/04/11 01:33:28;;;;;;;0.50;0.50;;;;;;;7.15;51.63;101323.38;5258059;28;20383;-78
2022/04/11 01:36:01;;;;;;;3.03;2.58;;;;;;;7.03;52.92;101318.19;5233305;28;20107;-77
2022/04/11 01:38:32;;;;;;;0.50;0.50;;;;;;;7.17;52.02;101324.22;5259802;28;20466;-77
2022/04/11 01:41:03;;;;;;;1.48;1.40;;;;;;;7.17;51.95;101321.63;5253442;28;20032;-78
2022/04/11 01:43:33;;;;;;;0.88;0.88;;;;;;;7.01;52.41;101319.94;5246214;27;20032;-78
2022/04/11 01:46:04;;;;;;;1.35;1.25;;;;;;;7.12;52.43;101317.28;5255216;28;20040;-78
2022/04/11 01:48:34;;;;;;;0.85;0.85;;;;;;;7.17;52.21;101312.94;5248321;27;20062;-77
2022/04/11 01:51:05;;;;;;;1.30;1.20;;;;;;;7.21;51.95;101318.16;5237032;28;20503;-78
2022/04/11 01:53:35;;;;;;;1.38;1.33;;;;;;;7.22;52.05;101317.28;5260972;27;20024;-78
2022/04/11 01:56:06;;;;;;;0.65;0.65;;;;;;;7.25;52.10;101312.03;5242197;28;20488;-78
2022/04/11 01:58:36;;;;;;;1.40;1.30;;;;;;;7.24;52.24;101307.69;5274721;27;20035;-77
2022/04/11 02:01:07;;;;;;;0.85;0.85;;;;;;;7.23;52.23;101308.53;5249470;28;20051;-77
2022/04/11 02:03:37;;;;;;;0.55;0.55;;;;;;;7.23;51.86;101316.38;5238328;27;20053;-77
2022/04/11 02:06:08;;;;;;;0.30;0.30;;;;;;;7.23;52.18;101303.31;5236999;28;20050;-77
2022/04/11 02:08:38;;;;;;;0.73;0.73;;;;;;;7.21;52.54;101302.50;5252283;28;20043;-77
2022/04/11 02:11:10;;;;;;;0.30;0.30;;;;;;;7.23;52.24;101303.31;5225556;28;20082;-77
2022/04/11 02:13:41;;;;;;;1.48;1.38;;;;;;;7.22;52.51;101304.22;5249895;28;20087;-77
2022/04/11 02:16:11;;;;;;;0.60;0.60;;;;;;;7.17;52.18;101298.13;5250611;28;20601;-77
2022/04/11 02:18:42;;;;;;;1.10;1.10;;;;;;;7.22;52.36;101305.94;5249633;27;20042;-78
2022/04/11 02:21:12;;;;;;;0.73;0.73;;;;;;;7.21;52.12;101305.09;5256413;28;20052;-77
2022/04/11 02:23:43;;;;;;;0.40;0.40;;;;;;;7.19;52.51;101298.16;5249861;28;20129;-77
2022/04/11 02:26:13;;;;;;;0.70;0.70;;;;;;;7.22;52.21;101298.13;5233427;28;20043;-77
2022/04/11 02:28:44;;;;;;;1.00;1.00;;;;;;;7.22;52.60;101304.22;5238045;28;20106;-77
2022/04/11 02:31:14;;;;;;;1.08;1.05;;;;;;;7.21;52.17;101301.59;5270300;28;20403;-77
2022/04/11 02:33:45;;;;;;;0.60;0.60;;;;;;;7.19;52.74;101299.00;5257811;28;20514;-78
2022/04/11 02:36:15;;;;;;;0.77;0.77;;;;;;;7.20;52.27;101303.34;5276736;28;20040;-78
2022/04/11 02:38:46;;;;;;;0.52;0.52;;;;;;;7.15;52.52;101306.84;5273583;28;20032;-78
2022/04/11 02:41:17;;;;;;;0.40;0.40;;;;;;;7.18;52.69;101297.25;5244027;28;20043;-78
2022/04/11 02:43:48;;;;;;;0.45;0.45;;;;;;;7.21;52.72;101299.00;5254056;28;20047;-78
2022/04/11 02:46:18;;;;;;;0.60;0.60;;;;;;;7.19;52.58;101298.16;5237351;28;20040;-78
2022/04/11 02:48:49;;;;;;;0.68;0.68;;;;;;;7.18;52.44;101296.41;5247321;28;20023;-77
2022/04/11 02:51:19;;;;;;;0.35;0.35;;;;;;;7.18;52.63;101296.41;5255717;28;20038;-77
2022/04/11 02:53:50;;;;;;;0.40;0.40;;;;;;;7.14;52.34;101302.50;5263871;28;20489;-77
2022/04/11 02:56:21;;;;;;;1.65;1.55;;;;;;;7.18;52.77;101304.25;5262564;28;20572;-76
2022/04/11 02:58:54;;;;;;;2.15;1.38;;;;;;;7.20;53.01;101299.84;5277200;28;20043;-77
2022/04/11 03:01:24;;;;;;;0.88;0.82;;;;;;;7.20;52.57;101297.25;5239033;28;20385;-77
2022/04/11 03:03:55;;;;;;;1.40;1.30;;;;;;;7.14;52.76;101294.66;5277503;28;20036;-78
2022/04/11 03:06:25;;;;;;;1.58;1.35;;;;;;;7.16;53.31;101301.63;5233309;28;20032;-77
2022/04/11 03:08:56;;;;;;;1.42;0.82;;;;;;;7.14;52.94;101305.09;5256447;28;20119;-77
2022/04/11 03:11:29;;;;;;;0.50;0.50;;;;;;;7.15;53.24;101301.63;5244373;28;20043;-76
2022/04/11 03:14:03;;;;;;;1.02;0.90;;;;;;;7.13;53.13;101300.75;5242852;28;20036;-78
2022/04/11 03:16:34;;;;;;;0.50;0.50;;;;;;;7.12;53.29;101305.13;5257394;28;20150;-77
2022/04/11 03:19:04;;;;;;;2.47;1.92;;;;;;;7.10;53.41;101293.81;5249656;28;20192;-77
2022/04/11 03:21:35;;;;;;;0.82;0.82;;;;;;;7.10;53.02;101301.66;5276577;27;20039;-78
2022/04/11 03:24:09;;;;;;;0.50;0.50;;;;;;;7.06;53.27;101300.78;5255106;28;20036;-77
2022/04/11 03:26:39;;;;;;;0.70;0.70;;;;;;;7.11;53.48;101299.91;5282865;27;20575;-77
2022/04/11 03:29:10;;;;;;;0.65;0.52;;;;;;;7.07;53.59;101299.03;5244935;28;20036;-78
2022/04/11 03:31:40;;;;;;;0.80;0.80;;;;;;;7.08;53.47;101300.78;5283630;27;20572;-77
2022/04/11 03:34:11;;;;;;;0.55;0.55;;;;;;;7.05;53.81;101295.59;5254545;28;20050;-78
2022/04/11 03:36:45;;;;;;;0.95;0.95;;;;;;;7.01;53.62;101293.84;5257139;28;20043;-78
2022/04/11 03:39:15;;;;;;;1.00;1.00;;;;;;;6.97;53.76;101292.97;5275262;28;20043;-77
2022/04/11 03:41:46;;;;;;;0.30;0.30;;;;;;;6.96;53.76;101282.56;5259520;27;20039;-77
2022/04/11 03:44:19;;;;;;;0.80;0.80;;;;;;;6.96;53.53;101279.94;5242120;28;20491;-78
2022/04/11 03:46:49;;;;;;;1.03;1.03;;;;;;;6.89;53.43;101276.47;5249512;28;20046;-78
2022/04/11 03:49:20;;;;;;;0.63;0.63;;;;;;;6.88;54.08;101283.47;5274453;28;20036;-78
2022/04/11 03:51:51;;;;;;;3.10;2.28;;;;;;;6.86;53.99;101279.97;5255098;27;20449;-77
2022/04/11 03:54:21;;;;;;;0.50;0.50;;;;;;;6.84;53.75;101286.06;5241716;28;20043;-77
2022/04/11 03:56:52;;;;;;;0.77;0.77;;;;;;;6.78;53.75;101281.75;5277860;27;20047;-77
2022/04/11 03:59:22;;;;;;;2.85;1.38;;;;;;;6.79;53.50;101283.47;5273998;27;20046;-76
2022/04/11 04:01:53;;;;;;;0.40;0.40;;;;;;;6.78;53.89;101279.97;5225346;28;20035;-77
2022/04/11 04:04:23;;;;;;;1.05;0.93;;;;;;;6.77;53.88;101280.00;5245650;28;20067;-77
2022/04/11 04:06:53;;;;;;;0.75;0.68;;;;;;;6.75;53.60;101281.72;5251273;28;20044;-76
2022/04/11 04:09:24;;;;;;;0.30;0.30;;;;;;;6.69;53.58;101277.41;5256595;28;20073;-77
2022/04/11 04:11:54;;;;;;;0.40;0.40;;;;;;;6.69;53.80;101281.75;5232774;28;20132;-76
2022/04/11 04:14:25;;;;;;;1.52;1.42;;;;;;;6.60;53.74;101277.44;5248248;27;20028;-76
2022/04/11 04:16:56;;;;;;;0.47;0.47;;;;;;;6.61;54.16;101277.41;5240319;28;20063;-76
2022/04/11 04:19:26;;;;;;;1.10;1.00;;;;;;;6.59;53.95;101273.94;5237695;28;20028;-77
2022/04/11 04:21:57;;;;;;;0.40;0.40;;;;;;;6.58;54.07;101280.03;5269711;27;20130;-76
2022/04/11 04:24:27;;;;;;;0.35;0.35;;;;;;;6.52;54.26;101287.00;5246911;27;20040;-77
2022/04/11 04:26:58;;;;;;;0.40;0.40;;;;;;;6.51;53.83;101293.94;5236574;27;20101;-76
2022/04/11 04:29:28;;;;;;;0.38;0.38;;;;;;;6.50;54.26;101287.00;5263411;28;20031;-75
2022/04/11 04:31:59;;;;;;;0.40;0.40;;;;;;;6.50;53.87;101284.38;5239702;28;20036;-76
2022/04/11 04:34:30;;;;;;;0.45;0.45;;;;;;;6.51;53.92;101282.66;5260051;27;20069;-77
2022/04/11 04:37:01;;;;;;;0.73;0.73;;;;;;;6.50;54.19;101287.00;5240374;28;20290;-78
2022/04/11 04:39:31;;;;;;;0.65;0.65;;;;;;;6.45;54.08;101284.38;5251225;28;20089;-77
2022/04/11 04:42:05;;;;;;;0.40;0.40;;;;;;;6.47;53.75;101289.63;5247428;28;20054;-77
2022/04/11 04:44:42;;;;;;;0.30;0.30;;;;;;;6.37;54.23;101285.28;5251157;27;20557;-77
2022/04/11 04:47:12;;;;;;;0.70;0.70;;;;;;;6.40;54.51;101287.88;5256678;28;20115;-77
2022/04/11 04:49:44;;;;;;;0.50;0.50;;;;;;;6.40;53.80;101280.06;5253779;28;20166;-76
2022/04/11 04:52:14;;;;;;;0.38;0.38;;;;;;;6.37;54.33;101290.47;5219664;28;20036;-76
2022/04/11 04:54:45;;;;;;;0.25;0.25;;;;;;;6.37;54.15;101282.66;5252278;27;20041;-75
2022/04/11 04:57:15;;;;;;;0.40;0.40;;;;;;;6.34;54.26;101288.75;5254972;28;20604;-77
2022/04/11 04:59:46;;;;;;;1.50;1.40;;;;;;;6.34;54.16;101291.38;5245288;27;20035;-78
2022/04/11 05:02:19;;;;;;;0.50;0.50;;;;;;;6.32;53.72;101292.25;5234222;28;20143;-76
2022/04/11 05:04:50;;;;;;;1.08;1.08;;;;;;;6.28;54.39;101288.75;5244112;28;20047;-76
2022/04/11 05:07:20;;;;;;;0.60;0.60;;;;;;;6.23;54.45;101291.38;5244833;28;20040;-77
2022/04/11 05:09:51;;;;;;;0.45;0.45;;;;;;;6.25;54.56;101292.22;5240876;28;20533;-77
2022/04/11 05:12:21;;;;;;;0.35;0.35;;;;;;;6.27;54.30;101290.47;5262339;28;20070;-77
2022/04/11 05:14:51;;;;;;;0.40;0.40;;;;;;;6.21;54.54;101295.72;5250313;27;20084;-76
2022/04/11 05:17:23;;;;;;;0.40;0.40;;;;;;;6.22;54.73;101291.34;5273855;28;20066;-75
2022/04/11 05:19:53;;;;;;;0.60;0.60;;;;;;;6.20;54.91;101288.75;5261900;28;20271;-75
2022/04/11 05:22:24;;;;;;;0.75;0.75;;;;;;;6.18;54.84;101284.41;5269330;28;20363;-75
2022/04/11 05:24:57;;;;;;;0.68;0.68;;;;;;;6.13;54.60;101287.03;5248228;28;20376;-75
2022/04/11 05:27:28;;;;;;;;;;;;;;;6.08;54.48;101283.53;5243337;28;20036;-76
2022/04/11 05:30:00;;;;;;;0.30;0.30;;;;;;;6.06;54.71;101283.53;5242378;28;19969;-77
2022/04/11 05:32:30;;;;;;;0.63;0.63;;;;;;;6.06;54.94;101286.13;5273145;27;20048;-76
2022/04/11 05:35:01;;;;;;;0.40;0.40;;;;;;;6.05;54.91;101284.41;5256734;28;20066;-77
2022/04/11 05:37:31;;;;;;;0.30;0.30;;;;;;;5.98;54.65;101285.22;5239089;27;20036;-78
2022/04/11 05:40:13;;;;;;;0.50;0.50;;;;;;;5.95;54.80;101282.63;5242682;28;20731;-77
2022/04/11 05:42:44;;;;;;;0.30;0.30;;;;;;;5.93;54.53;101280.00;5251771;27;20046;-77
2022/04/11 05:45:14;;;;;;;0.30;0.30;;;;;;;5.95;55.03;101275.69;5258489;28;20050;-78
2022/04/11 05:47:45;;;;;;;0.77;0.77;;;;;;;5.87;55.36;101274.81;5234207;27;20027;-77
2022/04/11 05:50:15;;;;;;;0.90;0.90;;;;;;;5.94;55.49;101276.53;5259872;28;20054;-77
2022/04/11 05:52:49;;;;;;;0.20;0.20;;;;;;;5.98;55.89;101272.19;5254359;28;20078;-77
2022/04/11 05:55:19;;;;;;;0.40;0.40;;;;;;;5.81;55.84;101272.19;5243200;28;20469;-77
2022/04/11 05:57:51;;;;;;;0.32;0.32;;;;;;;5.82;55.58;101271.34;5271798;27;20356;-77
2022/04/11 06:00:21;;;;;;;0.88;0.88;;;;;;;5.84;55.47;101280.00;5258884;28;20063;-77
2022/04/11 06:02:52;;;;;;;0.93;0.90;;;;;;;5.67;57.18;101272.16;5266336;28;20118;-76
2022/04/11 06:05:22;;;;;;;0.50;0.50;;;;;;;5.79;56.13;101266.97;5245744;28;20058;-78
2022/04/11 06:07:53;;;;;;;0.57;0.57;;;;;;;5.72;56.95;101275.63;5250631;28;20049;-76
2022/04/11 06:10:23;;;;;;;0.30;0.30;;;;;;;5.85;56.43;101271.31;5241113;28;20074;-77
2022/04/11 06:12:54;;;;;;;0.57;0.57;;;;;;;5.68;56.89;101272.16;5248883;27;20039;-77
2022/04/11 06:15:24;;;;;;;0.30;0.30;;;;;;;5.81;56.82;101274.81;5260906;28;20048;-78
2022/04/11 06:17:55;;;;;;;0.55;0.55;;;;;;;5.89;55.95;101277.41;5242156;27;20039;-77
2022/04/11 06:20:25;;;;;;;0.55;0.55;;;;;;;5.98;55.85;101275.69;5239708;28;20035;-77
2022/04/11 06:22:57;;;;;;;0.63;0.63;;;;;;;5.96;57.35;101274.81;5253621;28;20044;-78
2022/04/11 06:25:30;;;;;;;0.50;0.50;;;;;;;6.01;55.73;101276.56;5260147;28;20067;-77
2022/04/11 06:28:01;;;;;;;0.30;0.30;;;;;;;6.20;55.83;101282.69;5258550;28;20036;-78
2022/04/11 06:30:32;;;;;;;0.40;0.40;;;;;;;6.12;56.65;101280.06;5272019;28;20373;-80
2022/04/11 06:33:02;;;;;;;0.40;0.40;;;;;;;6.14;55.90;101273.97;5234517;28;20224;-78
2022/04/11 06:35:33;;;;;;;1.08;1.08;;;;;;;6.14;56.72;101273.13;5275092;28;20031;-77
2022/04/11 06:38:03;;;;;;;0.20;0.20;;;;;;;6.29;56.25;101269.63;5269792;28;20032;-77
2022/04/11 06:40:37;;;;;;;0.40;0.40;;;;;;;6.33;56.68;101278.31;5249132;28;20340;-77
2022/04/11 06:43:07;;;;;;;0.50;0.50;;;;;;;6.29;56.60;101277.44;5251282;28;20401;-77
2022/04/11 06:45:40;;;;;;;0.35;0.35;;;;;;;6.41;55.97;101271.34;5239450;28;20052;-78
2022/04/11 06:48:11;;;;;;;0.45;0.45;;;;;;;6.61;55.91;101273.97;5252578;28;20031;-79
2022/04/11 06:50:44;;;;;;;2.78;1.73;;;;;;;6.71;56.01;101267.84;5250252;28;20236;-77
2022/04/11 06:53:15;;;;;;;0.77;0.77;;;;;;;6.65;56.04;101274.81;5249603;28;20046;-77
2022/04/11 06:55:51;;;;;;;0.38;0.38;;;;;;;6.73;56.57;101273.91;5279952;27;20044;-78
2022/04/11 06:58:21;;;;;;;0.30;0.30;;;;;;;6.77;56.55;101274.78;5257614;28;20121;-78
2022/04/11 07:00:51;;;;;;;1.00;0.93;;;;;;;6.78;56.97;101276.53;5243097;28;20694;-77
2022/04/11 07:03:22;;;;;;;0.30;0.30;;;;;;;6.97;56.34;101276.47;5257490;28;20119;-77
2022/04/11 07:05:52;;;;;;;0.77;0.77;;;;;;;6.96;56.34;101269.50;5269688;27;20078;-78
2022/04/11 07:08:23;;;;;;;0.40;0.40;;;;;;;6.95;56.30;101268.63;5258607;28;20020;-80
2022/04/11 07:10:53;;;;;;;0.30;0.30;;;;;;;7.01;56.64;101266.03;5245353;28;20044;-78
2022/04/11 07:13:24;;;;;;;1.52;1.38;;;;;;;7.07;56.50;101255.56;5251747;28;20032;-77
2022/04/11 07:15:54;;;;;;;0.32;0.32;;;;;;;7.06;56.53;101260.78;5260169;28;20036;-78
2022/04/11 07:18:28;;;;;;;0.40;0.40;;;;;;;7.11;56.27;101268.59;5246023;28;20039;-77
2022/04/11 07:20:58;;;;;;;0.82;0.82;;;;;;;7.02;56.91;101262.53;5252667;28;20046;-79
2022/04/11 07:23:29;;;;;;;0.90;0.88;;;;;;;7.07;56.66;101263.38;5244514;27;20271;-77
2022/04/11 07:25:59;;;;;;;0.45;0.45;;;;;;;7.17;57.03;101261.59;5260697;28;20052;-77
2022/04/11 07:28:30;;;;;;;0.40;0.40;;;;;;;7.23;56.71;101273.75;5258841;28;20044;-78
2022/04/11 07:31:00;;;;;;;1.23;1.20;;;;;;;7.31;56.64;101271.13;5253658;28;20039;-78
2022/04/11 07:33:31;;;;;;;0.40;0.40;;;;;;;7.38;56.57;101263.25;5269955;27;20736;-77
2022/04/11 07:36:05;;;;;;;0.75;0.70;;;;;;;7.25;57.20;101265.03;5249520;27;20054;-77
2022/04/11 07:38:35;;;;;;;0.85;0.85;;;;;;;7.27;57.88;101259.84;5258827;28;20126;-79
2022/04/11 07:41:06;;;;;;;0.82;0.82;;;;;;;7.31;57.80;101261.53;5237253;28;20031;-80
2022/04/11 07:43:36;;;;;;;1.05;1.05;;;;;;;7.37;57.36;101261.50;5263712;27;20032;-80
2022/04/11 07:46:07;;;;;;;0.43;0.43;;;;;;;7.40;57.47;101256.28;5244591;28;20036;-80
2022/04/11 07:48:57;;;;;;;0.52;0.52;;;;;;;7.47;57.23;101251.00;5246458;27;20038;-78
2022/04/11 07:51:27;;;;;;;2.40;1.45;;;;;;;7.42;57.90;101250.19;5258855;28;20044;-78
2022/04/11 07:53:58;;;;;;;0.57;0.57;;;;;;;7.43;58.13;101252.78;5256967;28;20037;-79
2022/04/11 07:56:29;;;;;;;1.10;1.00;;;;;;;7.51;58.73;101242.31;5272628;27;20040;-76
2022/04/11 07:58:59;;;;;;;0.60;0.60;;;;;;;7.50;58.32;101238.81;5244328;28;20046;-77
2022/04/11 08:01:30;;;;;;;1.00;1.00;;;;;;;7.64;58.00;101237.88;5235725;27;20594;-77
2022/04/11 08:04:00;;;;;;;0.60;0.60;;;;;;;7.70;57.39;101243.03;5237689;28;20456;-76
2022/04/11 08:06:31;;;;;;;0.30;0.30;;;;;;;7.74;57.97;101244.75;5231047;28;20047;-76
2022/04/11 08:09:01;;;;;;;0.77;0.77;;;;;;;7.73;58.04;101248.22;5238179;28;20042;-77
2022/04/11 08:11:32;;;;;;;0.90;0.80;;;;;;;7.78;58.40;101241.25;5272051;28;20531;-77
2022/04/11 08:14:02;;;;;;;0.50;0.50;;;;;;;7.90;57.48;101242.00;5249405;28;20032;-76
2022/04/11 08:16:33;;;;;;;0.43;0.43;;;;;;;7.89;57.41;101241.16;5242606;27;20119;-77
2022/04/11 08:19:03;;;;;;;8.80;1.13;;;;;;;7.86;57.71;101239.44;5249683;28;20099;-77
2022/04/11 08:21:34;;;;;;;0.40;0.40;;;;;;;7.97;57.28;101235.88;5251749;28;20052;-77
2022/04/11 08:24:05;;;;;;;0.63;0.63;;;;;;;8.06;56.57;101240.16;5248438;28;20354;-78
2022/04/11 08:26:35;;;;;;;2.38;1.02;;;;;;;8.03;57.34;101225.38;5246999;27;20093;-78
2022/04/11 08:29:06;;;;;;;0.38;0.38;;;;;;;8.08;57.10;101226.19;5258584;28;20044;-78
2022/04/11 08:31:36;;;;;;;0.30;0.30;;;;;;;8.07;57.08;101224.47;5273019;28;20028;-78
2022/04/11 08:34:07;;;;;;;0.60;0.60;;;;;;;8.13;57.49;101215.69;5254924;28;20057;-79
2022/04/11 08:36:37;;;;;;;0.50;0.50;;;;;;;8.28;57.58;101220.78;5264609;27;20510;-78
2022/04/11 08:39:08;;;;;;;0.30;0.30;;;;;;;8.40;56.78;101219.78;5255668;28;20060;-79
2022/04/11 08:41:38;;;;;;;0.57;0.57;;;;;;;8.45;58.24;101217.13;5228012;27;20058;-77
2022/04/11 08:44:11;;;;;;;0.38;0.38;;;;;;;8.56;58.01;101220.53;5282939;27;20036;-80
2022/04/11 08:46:43;;;;;;;0.50;0.50;;;;;;;8.65;56.99;101215.22;5238336;27;20300;-77
2022/04/11 08:49:13;;;;;;;1.15;1.00;;;;;;;8.70;56.44;101212.56;5236018;28;20031;-78
2022/04/11 08:51:45;;;;;;;0.40;0.40;;;;;;;8.69;57.82;101205.59;5254026;28;20046;-78
2022/04/11 08:54:15;;;;;;;1.50;1.40;;;;;;;8.71;56.92;101210.78;5273794;27;20035;-76
2022/04/11 08:56:46;;;;;;;0.30;0.30;;;;;;;8.81;55.90;101208.03;5242793;27;20453;-78
2022/04/11 08:59:16;;;;;;;0.47;0.47;;;;;;;9.05;55.73;101198.16;5240364;28;20047;-78
2022/04/11 09:01:47;;;;;;;1.33;1.15;;;;;;;9.03;54.26;101199.06;5273262;27;20027;-77
2022/04/11 09:04:17;;;;;;;0.40;0.40;;;;;;;9.11;55.06;101192.84;5267927;28;20087;-76
2022/04/11 09:06:56;;;;;;;1.20;1.00;;;;;;;9.11;54.89;101195.47;5252332;27;20050;-77
2022/04/11 09:09:39;;;;;;;1.10;1.10;;;;;;;9.19;53.77;101189.25;5263904;28;20511;-76
2022/04/11 09:12:14;;;;;;;0.40;0.40;;;;;;;9.22;54.23;101184.84;5245367;28;20040;-78
2022/04/11 09:14:54;;;;;;;0.40;0.40;;;;;;;9.25;54.08;101183.94;5266167;27;20458;-76
2022/04/11 09:17:25;;;;;;;5.72;2.80;;;;;;;9.37;52.52;101182.88;5256550;28;20074;-78
2022/04/11 09:20:18;;;;;;;0.40;0.40;;;;;;;9.35;52.03;101190.78;5239951;28;20063;-78
2022/04/11 09:22:49;;;;;;;2.28;1.10;;;;;;;9.38;51.98;101180.22;5239261;27;20036;-78
2022/04/11 09:25:38;;;;;;;4.78;0.85;;;;;;;9.38;51.92;101179.38;5260544;28;20050;-78
2022/04/11 09:28:12;;;;;;;0.52;0.50;;;;;;;9.45;52.50;101181.91;5257011;28;20035;-77
2022/04/11 09:30:45;;;;;;;0.75;0.75;;;;;;;9.59;52.84;101178.19;5255713;27;20403;-78
2022/04/11 09:33:16;;;;;;;0.38;0.38;;;;;;;9.77;50.44;101184.88;5244661;28;20027;-78
2022/04/11 09:35:47;;;;;;;1.55;1.45;;;;;;;9.75;51.22;101187.53;5259509;28;20102;-76
2022/04/11 09:38:22;;;;;;;0.65;0.65;;;;;;;9.75;51.02;101174.44;5254431;28;20036;-78
2022/04/11 09:40:55;;;;;;;0.93;0.93;;;;;;;9.76;51.16;101181.41;5235765;28;20073;-76
2022/04/11 09:43:28;;;;;;;0.45;0.45;;;;;;;9.74;50.56;101170.09;5243366;27;20040;-77
2022/04/11 09:46:01;;;;;;;3.65;3.30;;;;;;;9.75;51.16;101158.72;5257750;28;20044;-78
2022/04/11 09:48:35;;;;;;;0.93;0.93;;;;;;;10.08;49.05;101166.88;5235461;28;20032;-76
2022/04/11 09:51:12;;;;;;;0.50;0.50;;;;;;;9.97;48.73;101173.22;5251915;28;20040;-78
2022/04/11 09:53:43;;;;;;;0.30;0.30;;;;;;;10.05;48.15;101174.78;5263080;28;20035;-78
2022/04/11 09:56:16;;;;;;;0.30;0.30;;;;;;;10.14;47.74;101170.28;5242847;28;20031;-76
2022/04/11 09:58:47;;;;;;;0.95;0.95;;;;;;;10.18;47.98;101158.84;5278646;27;20028;-79
2022/04/11 10:01:19;;;;;;;0.68;0.68;;;;;;;10.36;48.15;101150.66;5261949;28;20035;-77
2022/04/11 10:03:50;;;;;;;0.50;0.50;;;;;;;10.35;45.88;101151.53;5245749;28;20542;-76
2022/04/11 10:06:21;;;;;;;0.50;0.50;;;;;;;10.39;45.33;101142.75;5230300;28;20044;-77
2022/04/11 10:08:51;;;;;;;0.40;0.40;;;;;;;10.39;45.86;101128.78;5254057;28;20471;-78
2022/04/11 10:11:22;;;;;;;2.40;1.17;;;;;;;10.51;46.57;101128.50;5253929;28;20032;-76
2022/04/11 10:13:56;;;;;;;0.40;0.40;;;;;;;10.53;47.41;101125.88;5255148;28;20466;-78
2022/04/11 10:16:27;;;;;;;0.40;0.40;;;;;;;10.54;47.27;101130.19;5262400;27;20110;-77
2022/04/11 10:19:01;;;;;;;0.30;0.30;;;;;;;10.74;47.50;101124.56;5255950;28;20633;-77
2022/04/11 10:21:33;;;;;;;0.35;0.35;;;;;;;10.80;47.17;101128.78;5257752;28;20170;-76
2022/04/11 10:24:27;;;;;;;0.75;0.75;;;;;;;10.86;44.48;101120.81;5238688;28;20024;-78
2022/04/11 10:27:17;;;;;;;1.02;0.95;;;;;;;10.93;46.23;101117.16;5250388;28;20043;-78
2022/04/11 10:29:50;;;;;;;0.40;0.40;;;;;;;10.96;43.47;101117.06;5259857;27;20063;-76
2022/04/11 10:32:25;;;;;;;0.30;0.30;;;;;;;11.10;43.52;101114.13;5270200;28;20024;-78
2022/04/11 10:35:01;;;;;;;0.52;0.52;;;;;;;11.17;42.26;101114.84;5272828;28;20408;-78
2022/04/11 10:37:40;;;;;;;0.30;0.30;;;;;;;11.17;41.53;101113.09;5255805;27;20428;-78
2022/04/11 10:40:17;;;;;;;0.43;0.43;;;;;;;11.17;43.62;101110.44;5264492;28;20054;-77
2022/04/11 10:43:00;;;;;;;0.30;0.30;;;;;;;11.28;40.31;101106.72;5263569;27;20122;-78
2022/04/11 10:45:35;;;;;;;0.40;0.40;;;;;;;11.36;41.11;101101.28;5267938;27;20109;-78
2022/04/11 10:48:10;;;;;;;0.40;0.40;;;;;;;11.45;41.26;101098.41;5242550;28;20040;-78
2022/04/11 10:50:41;;;;;;;0.30;0.30;;;;;;;11.34;42.17;101098.69;5252733;27;20290;-78
2022/04/11 10:53:24;;;;;;;0.38;0.38;;;;;;;11.36;42.15;101093.41;5263859;28;20433;-78
2022/04/11 10:55:54;;;;;;;0.40;0.40;;;;;;;11.39;43.98;101091.56;5264075;27;20039;-79
2022/04/11 10:58:42;;;;;;;1.23;1.13;;;;;;;11.57;43.00;101095.50;5253604;27;20040;-78
2022/04/11 11:01:13;;;;;;;0.55;0.55;;;;;;;11.55;41.55;101085.94;5244050;28;20032;-78
2022/04/11 11:03:59;;;;;;;0.50;0.50;;;;;;;11.77;40.66;101081.00;5281473;27;20023;-77
2022/04/11 11:06:29;;;;;;;1.30;1.02;;;;;;;11.74;42.04;101076.66;5264522;28;20036;-78
2022/04/11 11:09:17;;;;;;;1.27;1.17;;;;;;;11.75;40.76;101078.38;5285906;28;20050;-78
2022/04/11 11:11:49;;;;;;;0.35;0.35;;;;;;;11.76;41.76;101081.88;5279900;27;20088;-78
2022/04/11 11:14:42;;;;;;;0.70;0.70;;;;;;;11.89;40.58;101069.28;5255236;28;20110;-77
2022/04/11 11:17:13;;;;;;;0.47;0.47;;;;;;;11.99;41.30;101062.88;5269433;28;20039;-78
2022/04/11 11:20:13;;;;;;;0.80;0.80;;;;;;;12.13;40.56;101062.50;5289360;27;20054;-79
2022/04/11 11:23:13;;;;;;;0.32;0.32;;;;;;;12.07;40.72;101057.41;5234594;27;20494;-78
2022/04/11 11:25:44;;;;;;;0.47;0.47;;;;;;;12.18;38.83;101049.22;5280634;27;20039;-79
2022/04/11 11:28:18;;;;;;;0.40;0.40;;;;;;;12.18;40.43;101057.09;5246148;28;20237;-77
2022/04/11 11:30:49;;;;;;;0.30;0.30;;;;;;;12.24;41.48;101049.91;5242679;28;20121;-78
2022/04/11 11:33:19;;;;;;;0.77;0.77;;;;;;;12.29;41.68;101041.88;5263624;28;20071;-76
2022/04/11 11:35:52;;;;;;;0.73;0.73;;;;;;;12.49;41.35;101038.66;5283027;27;20091;-77
2022/04/11 11:38:26;;;;;;;0.47;0.47;;;;;;;12.50;40.03;101045.66;5253375;28;20027;-79
2022/04/11 11:40:57;;;;;;;0.88;0.82;;;;;;;12.55;40.96;101035.84;5249380;28;20046;-79
2022/04/11 11:43:29;;;;;;;0.60;0.60;;;;;;;12.77;39.67;101026.44;5261754;28;20043;-79
2022/04/11 11:46:02;;;;;;;0.52;0.52;;;;;;;12.82;39.71;101030.63;5245024;28;20048;-78
2022/04/11 11:48:33;;;;;;;0.60;0.60;;;;;;;12.88;39.55;101021.69;5266049;28;20085;-77
2022/04/11 11:51:04;;;;;;;0.30;0.30;;;;;;;12.97;40.28;101020.53;5273227;28;20052;-79
2022/04/11 11:53:51;;;;;;;0.93;0.93;;;;;;;13.10;40.69;101018.34;5252430;27;20020;-75